SWA2700 KOKC-KMCO
Flight info
| Callsign | SWA2700 |
|---|---|
| Flight time | N/A |
| Altitude | 39000 |
| Route | RDHWK3 HOLLE MEEOW MATIE SQS MGMRY DEEDA GRNCH5 |
| Aircraft | B737/M-SADE2E3GIJ4RWZ/LB1D1 |
Departure
| Time | 2026-04-20 20:35 |
|---|---|
| Airport | OKC Will Rogers World Airport (KOKC) |
Arrival
| Time | N/A |
|---|---|
| Airport | Orlando International Airport (KMCO) |
| Time | Latitude | Longitude | Altitude | Speed | Heading |
|---|---|---|---|---|---|
| 2026-04-20 20:00 | 35.39454 | -97.59657 | 1296 ft | 0 kts | 15° |
| 2026-04-20 20:14 | 35.39454 | -97.59658 | 1296 ft | 1 kts | 15° |
| 2026-04-20 20:15 | 35.39431 | -97.59667 | 1296 ft | 4 kts | 25° |
| 2026-04-20 20:15 | 35.39408 | -97.59684 | 1296 ft | 4 kts | 47° |
| 2026-04-20 20:15 | 35.39397 | -97.59708 | 1296 ft | 3 kts | 100° |
| 2026-04-20 20:15 | 35.39398 | -97.59718 | 1296 ft | 0 kts | 104° |
| 2026-04-20 20:20 | 35.39393 | -97.59717 | 1296 ft | 1 kts | 172° |
| 2026-04-20 20:20 | 35.39392 | -97.59725 | 1296 ft | 1 kts | 268° |
| 2026-04-20 20:20 | 35.39402 | -97.59740 | 1296 ft | 4 kts | 305° |
| 2026-04-20 20:20 | 35.39413 | -97.59786 | 1296 ft | 7 kts | 262° |
| 2026-04-20 20:21 | 35.39363 | -97.59826 | 1295 ft | 12 kts | 184° |
| 2026-04-20 20:21 | 35.39270 | -97.59833 | 1292 ft | 14 kts | 191° |
| 2026-04-20 20:21 | 35.39216 | -97.59761 | 1292 ft | 13 kts | 91° |
| 2026-04-20 20:21 | 35.39216 | -97.59642 | 1292 ft | 15 kts | 89° |
| 2026-04-20 20:22 | 35.39216 | -97.59509 | 1293 ft | 16 kts | 90° |
| 2026-04-20 20:22 | 35.39216 | -97.59378 | 1294 ft | 15 kts | 90° |
| 2026-04-20 20:22 | 35.39216 | -97.59250 | 1293 ft | 15 kts | 90° |
| 2026-04-20 20:22 | 35.39216 | -97.59121 | 1291 ft | 15 kts | 90° |
| 2026-04-20 20:23 | 35.39292 | -97.59062 | 1292 ft | 15 kts | 360° |
| 2026-04-20 20:23 | 35.39395 | -97.59063 | 1294 ft | 15 kts | 360° |
| 2026-04-20 20:23 | 35.39511 | -97.59063 | 1292 ft | 19 kts | 360° |
| 2026-04-20 20:23 | 35.39649 | -97.59062 | 1292 ft | 20 kts | 0° |
| 2026-04-20 20:24 | 35.39787 | -97.59063 | 1294 ft | 20 kts | 0° |
| 2026-04-20 20:24 | 35.39921 | -97.59063 | 1291 ft | 19 kts | 360° |
| 2026-04-20 20:24 | 35.40051 | -97.59063 | 1291 ft | 18 kts | 0° |
| 2026-04-20 20:24 | 35.40176 | -97.59063 | 1292 ft | 18 kts | 360° |
| 2026-04-20 20:25 | 35.40296 | -97.59064 | 1290 ft | 17 kts | 360° |
| 2026-04-20 20:25 | 35.40413 | -97.59064 | 1289 ft | 16 kts | 0° |
| 2026-04-20 20:25 | 35.40490 | -97.59042 | 1291 ft | 6 kts | 46° |
| 2026-04-20 20:25 | 35.40500 | -97.59017 | 1292 ft | 0 kts | 73° |
| 2026-04-20 20:33 | 35.40502 | -97.58994 | 1292 ft | 6 kts | 88° |
| 2026-04-20 20:33 | 35.40503 | -97.58931 | 1293 ft | 8 kts | 89° |
| 2026-04-20 20:33 | 35.40473 | -97.58895 | 1293 ft | 8 kts | 180° |
| 2026-04-20 20:33 | 35.40426 | -97.58895 | 1294 ft | 1 kts | 180° |
| 2026-04-20 20:34 | 35.40425 | -97.58895 | 1294 ft | 0 kts | 180° |
| 2026-04-20 20:34 | 35.40424 | -97.58895 | 1294 ft | 1 kts | 180° |
| 2026-04-20 20:35 | 35.40248 | -97.58895 | 1293 ft | 63 kts | 180° |
| 2026-04-20 20:35 | 35.39553 | -97.58895 | 1290 ft | 133 kts | 180° |
| 2026-04-20 20:35 | 35.38439 | -97.58894 | 1435 ft | 177 kts | 180° |
| 2026-04-20 20:35 | 35.37244 | -97.58883 | 2468 ft | 165 kts | 178° |
| 2026-04-20 20:36 | 35.36135 | -97.58463 | 3082 ft | 186 kts | 146° |
| 2026-04-20 20:36 | 35.35256 | -97.57166 | 3500 ft | 212 kts | 121° |
| 2026-04-20 20:36 | 35.34562 | -97.55418 | 3732 ft | 244 kts | 119° |
| 2026-04-20 20:36 | 35.33814 | -97.53461 | 4337 ft | 259 kts | 118° |
| 2026-04-20 20:37 | 35.33047 | -97.51431 | 5213 ft | 264 kts | 118° |
| 2026-04-20 20:37 | 35.32274 | -97.49376 | 6132 ft | 268 kts | 118° |
| 2026-04-20 20:37 | 35.31485 | -97.47284 | 7177 ft | 272 kts | 118° |
| 2026-04-20 20:37 | 35.30684 | -97.45160 | 8307 ft | 276 kts | 118° |
| 2026-04-20 20:38 | 35.29867 | -97.43005 | 9361 ft | 282 kts | 118° |
| 2026-04-20 20:38 | 35.29043 | -97.40834 | 10361 ft | 289 kts | 117° |
| 2026-04-20 20:38 | 35.28157 | -97.38507 | 10826 ft | 316 kts | 117° |
| 2026-04-20 20:38 | 35.27190 | -97.35966 | 11336 ft | 337 kts | 116° |
| 2026-04-20 20:39 | 35.26189 | -97.33333 | 12254 ft | 344 kts | 116° |
| 2026-04-20 20:39 | 35.25520 | -97.31576 | 12874 ft | 347 kts | 116° |
| 2026-04-20 20:39 | 35.24493 | -97.28875 | 13777 ft | 353 kts | 115° |
| 2026-04-20 20:39 | 35.23446 | -97.26125 | 14705 ft | 358 kts | 115° |
| 2026-04-20 20:40 | 35.22036 | -97.22426 | 15905 ft | 365 kts | 115° |
| 2026-04-20 20:40 | 35.20957 | -97.19601 | 16761 ft | 370 kts | 115° |
| 2026-04-20 20:40 | 35.20213 | -97.17655 | 17329 ft | 374 kts | 115° |
| 2026-04-20 20:40 | 35.19118 | -97.14793 | 18143 ft | 379 kts | 115° |
| 2026-04-20 20:41 | 35.17990 | -97.11849 | 18921 ft | 385 kts | 115° |
| 2026-04-20 20:41 | 35.16846 | -97.08864 | 19695 ft | 391 kts | 115° |
| 2026-04-20 20:41 | 35.15682 | -97.05829 | 20424 ft | 397 kts | 115° |
| 2026-04-20 20:41 | 35.14498 | -97.02745 | 21169 ft | 402 kts | 115° |
| 2026-04-20 20:42 | 35.13303 | -96.99635 | 21883 ft | 407 kts | 115° |
| 2026-04-20 20:42 | 35.12096 | -96.96482 | 22543 ft | 412 kts | 114° |
| 2026-04-20 20:42 | 35.11148 | -96.93189 | 23189 ft | 417 kts | 104° |
| 2026-04-20 20:42 | 35.10448 | -96.89730 | 23829 ft | 422 kts | 103° |
| 2026-04-20 20:43 | 35.09759 | -96.86203 | 24428 ft | 428 kts | 103° |
| 2026-04-20 20:43 | 35.09041 | -96.82645 | 25001 ft | 433 kts | 104° |
| 2026-04-20 20:43 | 35.08294 | -96.79057 | 25580 ft | 438 kts | 104° |
| 2026-04-20 20:43 | 35.07529 | -96.75433 | 26130 ft | 443 kts | 104° |
| 2026-04-20 20:44 | 35.06752 | -96.71768 | 26647 ft | 449 kts | 104° |
| 2026-04-20 20:44 | 35.05965 | -96.68050 | 27131 ft | 454 kts | 104° |
| 2026-04-20 20:44 | 35.05181 | -96.64341 | 27602 ft | 459 kts | 104° |
| 2026-04-20 20:44 | 35.04377 | -96.60545 | 28075 ft | 463 kts | 104° |
| 2026-04-20 20:45 | 35.03564 | -96.56713 | 28554 ft | 468 kts | 104° |
| 2026-04-20 20:45 | 35.02744 | -96.52854 | 29011 ft | 472 kts | 104° |
| 2026-04-20 20:45 | 35.01915 | -96.48953 | 29446 ft | 476 kts | 105° |
| 2026-04-20 20:45 | 35.01074 | -96.45026 | 29853 ft | 481 kts | 105° |
| 2026-04-20 20:46 | 35.00211 | -96.41110 | 30232 ft | 485 kts | 105° |
| 2026-04-20 20:46 | 34.99318 | -96.37126 | 30658 ft | 488 kts | 105° |
| 2026-04-20 20:46 | 34.98412 | -96.33113 | 31078 ft | 491 kts | 106° |
| 2026-04-20 20:46 | 34.97499 | -96.29075 | 31471 ft | 494 kts | 106° |
| 2026-04-20 20:47 | 34.96583 | -96.25019 | 31863 ft | 496 kts | 106° |
| 2026-04-20 20:47 | 34.95662 | -96.20941 | 32201 ft | 499 kts | 106° |
| 2026-04-20 20:47 | 34.94739 | -96.16849 | 32536 ft | 502 kts | 106° |
| 2026-04-20 20:47 | 34.93811 | -96.12743 | 32908 ft | 503 kts | 106° |
| 2026-04-20 20:48 | 34.92893 | -96.08678 | 33305 ft | 503 kts | 106° |
| 2026-04-20 20:48 | 34.91960 | -96.04555 | 33727 ft | 502 kts | 106° |
| 2026-04-20 20:48 | 34.91029 | -96.00449 | 34164 ft | 501 kts | 106° |
| 2026-04-20 20:48 | 34.90101 | -95.96362 | 34551 ft | 501 kts | 106° |
| 2026-04-20 20:49 | 34.89179 | -95.92310 | 34824 ft | 503 kts | 106° |
| 2026-04-20 20:49 | 34.88242 | -95.88197 | 35081 ft | 506 kts | 106° |
| 2026-04-20 20:49 | 34.87285 | -95.84008 | 35332 ft | 508 kts | 106° |
| 2026-04-20 20:49 | 34.86346 | -95.79906 | 35589 ft | 510 kts | 107° |
| 2026-04-20 20:50 | 34.85391 | -95.75736 | 35914 ft | 510 kts | 107° |
| 2026-04-20 20:50 | 34.84433 | -95.71566 | 36210 ft | 511 kts | 107° |
| 2026-04-20 20:50 | 34.83472 | -95.67388 | 36446 ft | 513 kts | 107° |
| 2026-04-20 20:50 | 34.82507 | -95.63200 | 36656 ft | 515 kts | 107° |
| 2026-04-20 20:51 | 34.81551 | -95.59053 | 36995 ft | 513 kts | 107° |
| 2026-04-20 20:51 | 34.80586 | -95.54877 | 37430 ft | 510 kts | 107° |
| 2026-04-20 20:51 | 34.79629 | -95.50740 | 37808 ft | 507 kts | 107° |
| 2026-04-20 20:51 | 34.78668 | -95.46591 | 37984 ft | 510 kts | 107° |
| 2026-04-20 20:52 | 34.77699 | -95.42424 | 38099 ft | 514 kts | 107° |
| 2026-04-20 20:52 | 34.76722 | -95.38227 | 38282 ft | 515 kts | 107° |
| 2026-04-20 20:52 | 34.75756 | -95.34088 | 38525 ft | 515 kts | 107° |
| 2026-04-20 20:52 | 34.74775 | -95.29887 | 38759 ft | 515 kts | 107° |
| 2026-04-20 20:53 | 34.73794 | -95.25693 | 38966 ft | 516 kts | 107° |
| 2026-04-20 20:53 | 34.72809 | -95.21488 | 39142 ft | 518 kts | 107° |
| 2026-04-20 20:53 | 34.71817 | -95.17262 | 39287 ft | 520 kts | 107° |
| 2026-04-20 20:53 | 34.70819 | -95.13015 | 39277 ft | 524 kts | 107° |
| 2026-04-20 20:54 | 34.68812 | -95.04502 | 39287 ft | 521 kts | 107° |
| 2026-04-20 20:54 | 34.66832 | -94.96122 | 39294 ft | 516 kts | 107° |
| 2026-04-20 20:55 | 34.64842 | -94.87735 | 39294 ft | 516 kts | 107° |
| 2026-04-20 20:55 | 34.62850 | -94.79372 | 39301 ft | 515 kts | 107° |
| 2026-04-20 20:56 | 34.60853 | -94.71011 | 39305 ft | 515 kts | 107° |
| 2026-04-20 20:56 | 34.58856 | -94.62683 | 39309 ft | 516 kts | 107° |
| 2026-04-20 20:57 | 34.56840 | -94.54300 | 39312 ft | 517 kts | 107° |
| 2026-04-20 20:57 | 34.54823 | -94.45942 | 39318 ft | 519 kts | 107° |
| 2026-04-20 20:58 | 34.52782 | -94.37510 | 39320 ft | 521 kts | 108° |
| 2026-04-20 20:58 | 34.50731 | -94.29070 | 39324 ft | 523 kts | 108° |
| 2026-04-20 20:59 | 34.48658 | -94.20562 | 39326 ft | 525 kts | 108° |
| 2026-04-20 20:59 | 34.46594 | -94.12118 | 39325 ft | 527 kts | 108° |
| 2026-04-20 21:00 | 34.44503 | -94.03596 | 39318 ft | 528 kts | 108° |
| 2026-04-20 21:00 | 34.42406 | -93.95073 | 39313 ft | 528 kts | 108° |
| 2026-04-20 21:01 | 34.40300 | -93.86549 | 39315 ft | 528 kts | 108° |
| 2026-04-20 21:01 | 34.38190 | -93.78030 | 39311 ft | 527 kts | 108° |
| 2026-04-20 21:02 | 34.36089 | -93.69577 | 39314 ft | 527 kts | 108° |
| 2026-04-20 21:02 | 34.33968 | -93.61072 | 39314 ft | 526 kts | 108° |
| 2026-04-20 21:03 | 34.31846 | -93.52588 | 39311 ft | 526 kts | 108° |
| 2026-04-20 21:03 | 34.29847 | -93.44054 | 39308 ft | 526 kts | 106° |
| 2026-04-20 21:04 | 34.27969 | -93.35561 | 39319 ft | 525 kts | 105° |
| 2026-04-20 21:04 | 34.26065 | -93.27026 | 39321 ft | 525 kts | 105° |
| 2026-04-20 21:05 | 34.24144 | -93.18554 | 39328 ft | 525 kts | 106° |
| 2026-04-20 21:05 | 34.22197 | -93.10031 | 39329 ft | 525 kts | 106° |
| 2026-04-20 21:06 | 34.20244 | -93.01513 | 39326 ft | 526 kts | 106° |
| 2026-04-20 21:06 | 34.18284 | -92.92983 | 39330 ft | 527 kts | 105° |
| 2026-04-20 21:07 | 34.16316 | -92.84446 | 39335 ft | 528 kts | 106° |
| 2026-04-20 21:07 | 34.14337 | -92.75889 | 39318 ft | 529 kts | 107° |